This is the latest recevied weather packets stored in our database for station/object N8DMH-13. If no packets are shown the sender has not sent any weather packets the latest 10 day(s).
| Time | Temp. | Humidity | Pressure | Rain* | Wind** | Luminosity | Snow |
|---|---|---|---|---|---|---|---|
| 1778366580 | 13.33° C | 38% | 1004.8 hPa | 0 mm | - | - | - |
| 1778366280 | 13.33° C | 37% | 1004.7 hPa | 0 mm | - | - | - |
| 1778365980 | 13.33° C | 37% | 1004.6 hPa | 0 mm | - | - | - |
| 1778365650 | 13.89° C | 37% | 1004.5 hPa | 0 mm | - | - | - |
| 1778365350 | 13.89° C | 38% | 1004.4 hPa | 0 mm | - | - | - |
| 1778365020 | 13.89° C | 38% | 1004.4 hPa | 0 mm | - | - | - |
| 1778364720 | 13.33° C | 40% | 1004.4 hPa | 0 mm | - | - | - |
| 1778364389 | 13.33° C | 41% | 1004.1 hPa | 0 mm | - | - | - |
| 1778362829 | 13.89° C | 41% | 1003.8 hPa | 0 mm | - | - | - |
| 1778362199 | 13.33° C | 42% | 1003.9 hPa | 0 mm | - | - | - |
| 1778361899 | 13.33° C | 43% | 1003.8 hPa | 0 mm | - | - | - |
| 1778361569 | 12.78° C | 46% | 1003.8 hPa | 0 mm | - | - | - |
| 1778361269 | 12.22° C | 46% | 1003.8 hPa | 0 mm | - | - | - |
| 1778360938 | 12.22° C | 48% | 1003.8 hPa | 0 mm | - | - | - |
| 1778359048 | 13.33° C | 46% | 1003.1 hPa | 0 mm | - | - | - |
| 1778358718 | 13.89° C | 50% | 1003 hPa | 0 mm | - | - | - |
| 1778358417 | 13.89° C | 46% | 1002.8 hPa | 0 mm | - | - | - |
| 1778358118 | 14.44° C | 43% | 1002.7 hPa | 0 mm | - | - | - |
| 1778357817 | 13.89° C | 54% | 1002.5 hPa | 0 mm | - | - | - |
| 1778356557 | 13.89° C | 53% | 1002.3 hPa | 0 mm | - | - | - |
| 1778356257 | 13.89° C | 53% | 1002.2 hPa | 0 mm | - | - | - |
| 1778355927 | 13.33° C | 53% | 1002.1 hPa | 0 mm | - | - | - |
| 1778339962 | 10.56° C | 67% | 1000.4 hPa | 0 mm | - | - | - |
| 1778339632 | 10.56° C | 65% | 1000.4 hPa | 0 mm | - | - | - |
| 1778339332 | 10.56° C | 67% | 1000.5 hPa | 0 mm | - | - | - |
* Rain latest hour (hover to see other rain measurements)
** Current wind speed in m/s (hover to see current wind gust speed)